Kenosha, Wisconsin
Current Conditions -  °F | °C
As of 1:53 AM on Sunday 26 Oct 2014 (Local Time) from KENW Reporting Station
Clear Clear  
Wind Chill: 50°   Ceiling: Unl
Heat Index: 50°   Visibility: 10mi
Dew Point: 29°   Wind: 9mph
Humidity: 44%   Direction: 300°WNW
Pressure: 29.98"   Gusts: NA
Location:  42.59°N, 87.82°W
Report Text: KENW 260653Z AUTO 30008KT 10SM CLR 10/M02 A2998 RMK AO2 SLP150 T01001017
Loading
Personal Weather Stations






























Interactive Weather Map
Tropical Storm Tracking
New forecast layout! Learn more

10-Day Weather Forecast

Advertisements
Track Severe Weather on mobile